createdAt,value
2019-05-19T00:00:40.256Z,76.00
2019-05-19T00:03:09.527Z,70.73
2019-05-19T00:05:38.768Z,75.13
2019-05-19T00:08:08.016Z,80.17
2019-05-19T00:10:37.418Z,76.57
2019-05-19T00:13:06.936Z,148.83
2019-05-19T00:15:36.256Z,102.57
2019-05-19T00:18:12.264Z,89.23
2019-05-19T00:20:41.506Z,81.73
2019-05-19T00:23:10.701Z,90.47
2019-05-19T00:25:39.902Z,76.77
2019-05-19T00:28:09.172Z,87.23
2019-05-19T00:30:38.375Z,81.00
2019-05-19T00:33:07.589Z,77.13
2019-05-19T00:35:36.798Z,73.37
2019-05-19T00:38:06.079Z,80.47
2019-05-19T00:40:35.286Z,79.77
2019-05-19T00:43:04.489Z,81.17
2019-05-19T00:45:33.735Z,81.13
2019-05-19T00:48:03.180Z,79.67
2019-05-19T00:50:32.363Z,95.90
2019-05-19T00:53:01.901Z,78.83
2019-05-19T00:55:33.510Z,83.03
2019-05-19T00:58:03.653Z,78.57
2019-05-19T01:00:32.836Z,78.23
2019-05-19T01:03:02.050Z,82.90
2019-05-19T01:05:31.233Z,79.00
2019-05-19T01:08:00.447Z,82.80
2019-05-19T01:10:30.359Z,83.40
2019-05-19T01:12:59.616Z,81.23
2019-05-19T01:15:28.822Z,82.63
2019-05-19T01:17:58.510Z,84.10
2019-05-19T01:20:27.721Z,96.63
2019-05-19T01:22:56.958Z,89.70
2019-05-19T01:25:26.151Z,91.27
2019-05-19T01:27:55.336Z,90.10
2019-05-19T01:30:24.772Z,91.27
2019-05-19T01:32:53.983Z,86.07
2019-05-19T01:35:24.774Z,90.73
2019-05-19T01:37:53.968Z,115.97
2019-05-19T01:40:23.279Z,91.80
2019-05-19T01:42:52.450Z,91.93
2019-05-19T01:45:21.990Z,91.37
2019-05-19T01:47:51.217Z,88.83
2019-05-19T01:50:20.519Z,88.30
2019-05-19T01:52:49.678Z,83.93
2019-05-19T01:55:18.847Z,91.50
2019-05-19T01:57:48.057Z,101.60
2019-05-19T02:00:18.496Z,99.33
2019-05-19T02:02:47.697Z,94.87
2019-05-19T02:05:17.530Z,96.90
2019-05-19T02:07:46.734Z,101.97
2019-05-19T02:10:15.942Z,100.73
2019-05-19T02:12:45.157Z,95.60
2019-05-19T02:15:14.712Z,89.10
2019-05-19T02:17:43.931Z,89.10
2019-05-19T02:20:13.680Z,91.10
2019-05-19T02:22:42.956Z,99.57
2019-05-19T02:25:12.481Z,91.27
2019-05-19T02:27:41.678Z,88.17
2019-05-19T02:30:12.836Z,87.27
2019-05-19T02:32:42.986Z,85.97
2019-05-19T02:35:18.244Z,84.67
2019-05-19T02:37:47.462Z,84.83
2019-05-19T02:40:16.997Z,85.50
2019-05-19T02:42:47.531Z,83.33
2019-05-19T02:45:16.779Z,85.27
2019-05-19T02:47:48.528Z,83.83
2019-05-19T02:50:17.896Z,136.57
2019-05-19T02:52:49.990Z,94.67
2019-05-19T02:55:20.503Z,90.80
2019-05-19T02:57:51.658Z,84.43
2019-05-19T03:00:32.642Z,79.67
2019-05-19T03:03:01.830Z,81.27
2019-05-19T03:05:31.011Z,80.77
2019-05-19T03:08:00.330Z,78.07
2019-05-19T03:10:29.537Z,83.23
2019-05-19T03:12:58.691Z,81.97
2019-05-19T03:15:28.167Z,84.10
2019-05-19T03:17:58.432Z,81.03
2019-05-19T03:20:27.625Z,80.93
2019-05-19T03:22:56.819Z,80.93
2019-05-19T03:25:25.999Z,78.20
2019-05-19T03:27:55.237Z,75.83
2019-05-19T03:30:37.917Z,81.40
2019-05-19T03:33:11.500Z,82.67
2019-05-19T03:35:40.702Z,86.63
2019-05-19T03:38:09.881Z,82.33
2019-05-19T03:40:39.078Z,85.63
2019-05-19T03:43:08.282Z,84.63
2019-05-19T03:45:37.472Z,89.73
2019-05-19T03:48:06.711Z,82.10
2019-05-19T03:50:35.933Z,83.03
2019-05-19T03:53:05.111Z,90.57
2019-05-19T03:55:34.311Z,89.17
2019-05-19T03:58:03.486Z,86.87
2019-05-19T04:00:32.669Z,86.70
2019-05-19T04:03:01.893Z,89.37
2019-05-19T04:05:31.077Z,84.33
2019-05-19T04:08:00.290Z,86.53
2019-05-19T04:10:29.522Z,90.00
2019-05-19T04:12:58.706Z,83.60
2019-05-19T04:15:45.835Z,85.47
2019-05-19T04:18:15.011Z,85.33
2019-05-19T04:20:54.172Z,81.73
2019-05-19T04:23:23.395Z,77.03
2019-05-19T04:25:52.829Z,75.53
2019-05-19T04:28:22.042Z,72.30
2019-05-19T04:30:51.273Z,75.93
2019-05-19T04:33:20.480Z,76.00
2019-05-19T04:35:49.678Z,70.13
2019-05-19T04:38:18.882Z,74.67
2019-05-19T04:40:48.084Z,69.80
2019-05-19T04:43:17.294Z,70.90
2019-05-19T04:45:46.524Z,72.87
2019-05-19T04:48:15.715Z,73.27
2019-05-19T04:50:46.467Z,73.37
2019-05-19T04:53:15.670Z,73.57
2019-05-19T04:55:44.856Z,72.63
2019-05-19T04:58:14.071Z,71.37
2019-05-19T05:00:43.276Z,63.87
2019-05-19T05:03:13.423Z,68.07
2019-05-19T05:05:42.622Z,67.07
2019-05-19T05:08:27.865Z,67.57
2019-05-19T05:10:42.727Z,67.87
2019-05-19T05:13:11.918Z,64.87
2019-05-19T05:15:41.099Z,66.40
2019-05-19T05:18:10.426Z,63.37
2019-05-19T05:20:39.639Z,66.17
2019-05-19T05:23:08.846Z,65.27
2019-05-19T05:25:38.024Z,63.10
2019-05-19T05:28:07.226Z,67.00
2019-05-19T05:30:36.427Z,65.23
2019-05-19T05:33:05.640Z,63.27
2019-05-19T05:35:34.855Z,68.00
2019-05-19T05:38:04.045Z,64.53
2019-05-19T05:40:33.253Z,59.43
2019-05-19T05:43:02.477Z,60.00
2019-05-19T05:45:31.691Z,58.47
2019-05-19T05:48:00.924Z,58.53
2019-05-19T05:50:30.101Z,56.97
2019-05-19T05:52:59.315Z,56.53
2019-05-19T05:55:28.495Z,55.73
2019-05-19T05:57:57.683Z,54.47
2019-05-19T06:00:26.908Z,54.93
2019-05-19T06:02:56.121Z,57.60
2019-05-19T06:05:25.320Z,53.27
2019-05-19T06:07:54.531Z,51.10
2019-05-19T06:10:23.730Z,50.77
2019-05-19T06:12:52.947Z,55.03
2019-05-19T06:15:22.217Z,52.93
2019-05-19T06:17:51.397Z,53.73
2019-05-19T06:20:20.595Z,51.10
2019-05-19T06:22:56.553Z,51.03
2019-05-19T06:25:20.747Z,47.77
2019-05-19T06:27:49.987Z,50.20
2019-05-19T06:30:19.261Z,51.90
2019-05-19T06:32:50.120Z,46.57
2019-05-19T06:35:20.119Z,52.97
2019-05-19T06:37:49.319Z,51.20
2019-05-19T06:40:18.677Z,48.43
2019-05-19T06:42:49.502Z,51.03
2019-05-19T06:45:18.699Z,53.23
2019-05-19T06:47:50.872Z,52.17
2019-05-19T06:50:20.214Z,52.60
2019-05-19T06:52:51.668Z,51.73
2019-05-19T06:55:20.879Z,53.90
2019-05-19T06:57:50.846Z,53.57
2019-05-19T07:00:20.567Z,53.47
2019-05-19T07:02:49.762Z,49.30
2019-05-19T07:05:20.138Z,52.97
2019-05-19T07:07:49.324Z,46.37
2019-05-19T07:10:18.764Z,48.33
2019-05-19T07:12:47.959Z,52.87
2019-05-19T07:15:17.509Z,50.67
2019-05-19T07:17:46.723Z,51.80
2019-05-19T07:20:15.922Z,47.63
2019-05-19T07:22:45.103Z,48.47
2019-05-19T07:25:14.373Z,48.53
2019-05-19T07:27:43.585Z,49.70
2019-05-19T07:30:13.324Z,50.23
2019-05-19T07:32:42.516Z,48.43
2019-05-19T07:35:11.893Z,50.50
2019-05-19T07:37:41.089Z,49.50
2019-05-19T07:40:29.372Z,52.37
2019-05-19T07:43:16.811Z,51.40
2019-05-19T07:45:46.054Z,51.60
2019-05-19T07:48:15.255Z,58.20
2019-05-19T07:50:44.492Z,54.60
2019-05-19T07:53:13.697Z,53.07
2019-05-19T07:55:42.900Z,49.33
2019-05-19T07:58:12.089Z,49.70
2019-05-19T08:00:41.285Z,50.27
2019-05-19T08:03:10.474Z,53.43
2019-05-19T08:05:39.661Z,50.17
2019-05-19T08:08:08.899Z,55.33
2019-05-19T08:10:38.075Z,52.37
2019-05-19T08:13:07.260Z,51.50
2019-05-19T08:15:36.459Z,54.93
2019-05-19T08:18:05.655Z,54.13
2019-05-19T08:20:34.899Z,47.67
2019-05-19T08:23:04.120Z,48.20
2019-05-19T08:25:33.334Z,53.77
2019-05-19T08:28:08.286Z,48.17
2019-05-19T08:30:33.434Z,50.57
2019-05-19T08:33:02.752Z,48.47
2019-05-19T08:35:31.985Z,51.53
2019-05-19T08:38:01.194Z,50.60
2019-05-19T08:40:30.416Z,48.43
2019-05-19T08:42:59.591Z,55.97
2019-05-19T08:45:28.807Z,44.67
2019-05-19T08:47:58.332Z,48.00
2019-05-19T08:50:27.520Z,46.80
2019-05-19T08:52:56.721Z,44.80
2019-05-19T08:55:25.909Z,46.17
2019-05-19T08:57:55.119Z,44.97
2019-05-19T09:00:25.830Z,44.17
2019-05-19T09:02:55.035Z,40.80
2019-05-19T09:05:24.235Z,50.07
2019-05-19T09:07:54.352Z,43.43
2019-05-19T09:10:23.547Z,42.43
2019-05-19T09:12:52.775Z,41.87
2019-05-19T09:15:21.975Z,47.40
2019-05-19T09:17:54.100Z,46.13
2019-05-19T09:20:22.088Z,41.40
2019-05-19T09:22:51.756Z,45.53
2019-05-19T09:25:20.960Z,47.50
2019-05-19T09:27:50.520Z,45.73
2019-05-19T09:30:19.956Z,49.73
2019-05-19T09:32:49.143Z,48.03
2019-05-19T09:35:18.437Z,46.40
2019-05-19T09:37:47.623Z,44.10
2019-05-19T09:40:18.826Z,44.83
2019-05-19T09:42:48.018Z,46.40
2019-05-19T09:45:17.538Z,46.50
2019-05-19T09:47:46.749Z,39.87
2019-05-19T09:50:17.886Z,42.17
2019-05-19T09:52:47.070Z,45.87
2019-05-19T09:55:16.844Z,46.00
2019-05-19T09:57:46.054Z,45.10
2019-05-19T10:00:16.641Z,43.33
2019-05-19T10:02:45.813Z,51.67
2019-05-19T10:05:15.161Z,44.47
2019-05-19T10:07:44.346Z,43.83
2019-05-19T10:10:19.421Z,43.47
2019-05-19T10:12:48.618Z,42.97
2019-05-19T10:15:17.977Z,47.50
2019-05-19T10:17:48.121Z,43.80
2019-05-19T10:20:17.742Z,41.97
2019-05-19T10:22:46.936Z,41.87
2019-05-19T10:25:22.067Z,40.00
2019-05-19T10:27:47.113Z,45.87
2019-05-19T10:30:16.833Z,42.23
2019-05-19T10:32:46.019Z,40.47
2019-05-19T10:35:15.283Z,39.87
2019-05-19T10:37:44.473Z,40.23
2019-05-19T10:40:15.234Z,40.97
2019-05-19T10:42:44.445Z,37.10
2019-05-19T10:45:14.086Z,42.13
2019-05-19T10:47:43.275Z,40.37
2019-05-19T10:50:13.325Z,38.30
2019-05-19T10:52:42.518Z,41.83
2019-05-19T10:55:11.784Z,35.00
2019-05-19T10:57:40.987Z,38.90
2019-05-19T11:00:10.843Z,37.63
2019-05-19T11:02:40.026Z,38.50
2019-05-19T11:05:11.208Z,39.07
2019-05-19T11:07:40.146Z,38.20
2019-05-19T11:10:09.679Z,36.33
2019-05-19T11:12:38.934Z,37.70
2019-05-19T11:15:08.657Z,39.43
2019-05-19T11:17:37.898Z,38.63
2019-05-19T11:20:07.244Z,36.53
2019-05-19T11:22:36.425Z,39.60
2019-05-19T11:25:06.653Z,43.90
2019-05-19T11:27:36.206Z,38.87
2019-05-19T11:30:08.652Z,39.43
2019-05-19T11:32:37.888Z,45.60
2019-05-19T11:35:08.639Z,39.33
2019-05-19T11:37:37.819Z,39.53
2019-05-19T11:40:25.023Z,41.27
2019-05-19T11:42:54.215Z,42.53
2019-05-19T11:45:23.417Z,41.93
2019-05-19T11:47:52.604Z,36.73
2019-05-19T11:50:22.803Z,43.50
2019-05-19T11:52:51.986Z,39.47
2019-05-19T11:55:21.185Z,39.63
2019-05-19T11:57:52.182Z,38.00
2019-05-19T12:00:21.534Z,45.50
2019-05-19T12:02:50.726Z,46.63
2019-05-19T12:05:20.008Z,42.03
2019-05-19T12:07:49.211Z,41.50
2019-05-19T12:10:18.483Z,46.20
2019-05-19T12:12:47.655Z,45.20
2019-05-19T12:15:17.012Z,42.73
2019-05-19T12:17:46.225Z,45.10
2019-05-19T12:20:16.057Z,42.67
2019-05-19T12:22:45.251Z,42.43
2019-05-19T12:25:16.034Z,47.07
2019-05-19T12:27:45.241Z,51.37
2019-05-19T12:30:18.929Z,42.83
2019-05-19T12:32:48.097Z,43.30
2019-05-19T12:35:17.463Z,49.40
2019-05-19T12:37:46.656Z,42.27
2019-05-19T12:40:15.863Z,65.33
2019-05-19T12:42:45.062Z,54.00
2019-05-19T12:45:14.503Z,46.70
2019-05-19T12:47:43.767Z,47.03
2019-05-19T12:50:14.695Z,47.80
2019-05-19T12:52:43.893Z,45.00
2019-05-19T12:55:13.327Z,46.67
2019-05-19T12:57:42.619Z,45.60
2019-05-19T13:00:12.045Z,46.67
2019-05-19T13:02:41.261Z,52.60
2019-05-19T13:05:10.825Z,45.00
2019-05-19T13:07:39.989Z,48.00
2019-05-19T13:10:09.535Z,48.33
2019-05-19T13:12:38.716Z,49.17
2019-05-19T13:15:08.238Z,48.23
2019-05-19T13:17:37.456Z,49.23
2019-05-19T13:20:07.502Z,47.90
2019-05-19T13:22:36.750Z,55.40
2019-05-19T13:25:06.768Z,51.80
2019-05-19T13:27:36.027Z,50.40
2019-05-19T13:30:08.126Z,53.57
2019-05-19T13:32:37.320Z,51.97
2019-05-19T13:35:08.055Z,48.77
2019-05-19T13:37:37.251Z,54.03
2019-05-19T13:40:06.779Z,52.63
2019-05-19T13:42:35.992Z,50.53
2019-05-19T13:45:06.882Z,52.73
2019-05-19T13:47:36.091Z,53.93
2019-05-19T13:50:09.039Z,55.00
2019-05-19T13:52:38.293Z,53.90
2019-05-19T13:55:07.846Z,53.60
2019-05-19T13:57:37.022Z,53.53
2019-05-19T14:00:06.945Z,54.37
2019-05-19T14:02:36.204Z,48.70
2019-05-19T14:05:06.567Z,52.13
2019-05-19T14:07:35.772Z,58.30
2019-05-19T14:10:07.256Z,59.30
2019-05-19T14:12:36.394Z,51.80
2019-05-19T14:15:09.341Z,53.00
2019-05-19T14:17:40.470Z,53.80
2019-05-19T14:20:10.115Z,51.47
2019-05-19T14:22:39.297Z,47.97
2019-05-19T14:25:08.645Z,50.77
2019-05-19T14:27:37.845Z,55.63
2019-05-19T14:30:07.672Z,49.07
2019-05-19T14:32:36.876Z,48.43
2019-05-19T14:35:06.936Z,50.90
2019-05-19T14:37:36.163Z,57.17
2019-05-19T14:40:07.253Z,51.07
2019-05-19T14:42:46.803Z,50.53
2019-05-19T14:45:16.533Z,47.07
2019-05-19T14:47:45.734Z,55.80
2019-05-19T14:50:15.457Z,49.80
2019-05-19T14:52:44.734Z,48.57
2019-05-19T14:55:14.197Z,53.23
2019-05-19T14:57:45.351Z,48.23
2019-05-19T15:00:16.509Z,46.13
2019-05-19T15:02:45.805Z,46.33
2019-05-19T15:05:15.111Z,46.83
2019-05-19T15:07:44.337Z,45.67
2019-05-19T15:10:13.986Z,41.20
2019-05-19T15:12:43.151Z,42.30
2019-05-19T15:15:12.979Z,47.07
2019-05-19T15:17:42.192Z,46.10
2019-05-19T15:20:29.086Z,45.83
2019-05-19T15:23:16.115Z,47.37
2019-05-19T15:25:45.291Z,48.37
2019-05-19T15:28:14.505Z,43.70
2019-05-19T15:30:44.045Z,44.73
2019-05-19T15:33:14.171Z,41.83
2019-05-19T15:35:43.358Z,50.00
2019-05-19T15:38:12.549Z,46.07
2019-05-19T15:40:41.731Z,45.17
2019-05-19T15:43:10.945Z,40.63
2019-05-19T15:45:40.152Z,47.57
2019-05-19T15:48:09.326Z,44.97
2019-05-19T15:50:38.513Z,52.90
2019-05-19T15:53:07.775Z,56.13
2019-05-19T15:55:37.003Z,44.03
2019-05-19T15:58:16.018Z,43.80
2019-05-19T16:00:37.064Z,46.07
2019-05-19T16:03:06.338Z,47.33
2019-05-19T16:05:35.517Z,47.33
2019-05-19T16:08:04.699Z,50.00
2019-05-19T16:10:33.975Z,45.30
2019-05-19T16:13:03.169Z,46.80
2019-05-19T16:15:32.354Z,44.83
2019-05-19T16:18:01.557Z,48.40
2019-05-19T16:20:30.746Z,48.27
2019-05-19T16:22:59.949Z,45.17
2019-05-19T16:25:29.134Z,41.43
2019-05-19T16:27:58.339Z,43.43
2019-05-19T16:30:27.542Z,43.67
2019-05-19T16:32:56.745Z,45.27
2019-05-19T16:35:25.925Z,47.10
2019-05-19T16:37:55.193Z,40.60
2019-05-19T16:40:25.981Z,44.13
2019-05-19T16:42:55.193Z,50.03
2019-05-19T16:45:24.352Z,43.03
2019-05-19T16:47:53.569Z,42.47
2019-05-19T16:50:22.849Z,37.53
2019-05-19T16:52:52.051Z,39.53
2019-05-19T16:55:25.610Z,39.97
2019-05-19T16:57:54.815Z,36.30
2019-05-19T17:00:24.665Z,34.57
2019-05-19T17:02:53.857Z,36.07
2019-05-19T17:05:23.094Z,38.50
2019-05-19T17:07:52.295Z,37.63
2019-05-19T17:10:21.643Z,36.53
2019-05-19T17:12:50.939Z,33.97
2019-05-19T17:15:20.271Z,39.90
2019-05-19T17:17:49.598Z,34.93
2019-05-19T17:20:19.513Z,40.07
2019-05-19T17:22:48.825Z,35.33
2019-05-19T17:25:18.458Z,34.47
2019-05-19T17:27:47.697Z,36.47
2019-05-19T17:30:17.556Z,40.90
2019-05-19T17:32:46.783Z,38.57
2019-05-19T17:35:16.029Z,37.90
2019-05-19T17:38:03.446Z,39.17
2019-05-19T17:40:32.635Z,39.87
2019-05-19T17:43:01.830Z,38.40
2019-05-19T17:45:31.091Z,40.97
2019-05-19T17:48:09.782Z,36.03
2019-05-19T17:50:33.347Z,38.10
2019-05-19T17:53:03.638Z,34.47
2019-05-19T17:55:34.866Z,38.63
2019-05-19T17:58:04.925Z,40.43
2019-05-19T18:00:37.298Z,38.07
2019-05-19T18:03:06.999Z,35.37
2019-05-19T18:05:36.255Z,38.73
2019-05-19T18:08:05.988Z,39.70
2019-05-19T18:10:35.242Z,38.60
2019-05-19T18:13:04.530Z,33.30
2019-05-19T18:15:33.706Z,39.73
2019-05-19T18:18:02.926Z,37.87
2019-05-19T18:20:32.151Z,41.60
2019-05-19T18:23:01.327Z,37.27
2019-05-19T18:25:30.608Z,34.60
2019-05-19T18:27:59.828Z,41.60
2019-05-19T18:30:29.047Z,37.80
2019-05-19T18:32:58.276Z,37.93
2019-05-19T18:35:27.514Z,42.07
2019-05-19T18:37:57.674Z,33.97
2019-05-19T18:40:26.860Z,35.07
2019-05-19T18:42:56.058Z,41.27
2019-05-19T18:45:27.727Z,34.07
2019-05-19T18:47:56.922Z,40.50
2019-05-19T18:50:26.134Z,39.70
2019-05-19T18:52:56.842Z,34.20
2019-05-19T18:55:26.041Z,31.27
2019-05-19T18:57:55.264Z,36.00
2019-05-19T19:00:43.166Z,34.40
2019-05-19T19:03:12.507Z,37.67
2019-05-19T19:05:41.693Z,36.30
2019-05-19T19:08:10.893Z,38.87
2019-05-19T19:10:40.641Z,38.40
2019-05-19T19:13:09.901Z,34.37
2019-05-19T19:15:40.048Z,35.43
2019-05-19T19:18:09.261Z,36.63
2019-05-19T19:20:38.585Z,44.63
2019-05-19T19:23:07.847Z,35.30
2019-05-19T19:25:37.062Z,37.30
2019-05-19T19:28:09.299Z,39.13
2019-05-19T19:30:38.488Z,40.63
2019-05-19T19:33:07.763Z,37.23
2019-05-19T19:35:39.557Z,35.50
2019-05-19T19:38:07.945Z,30.43
2019-05-19T19:40:55.375Z,37.67
2019-05-19T19:43:43.698Z,30.90
2019-05-19T19:46:12.903Z,34.27
2019-05-19T19:48:42.147Z,35.07
2019-05-19T19:51:11.362Z,34.40
2019-05-19T19:53:40.549Z,32.37
2019-05-19T19:56:09.749Z,35.50
2019-05-19T19:58:38.939Z,37.03
2019-05-19T20:01:08.177Z,40.43
2019-05-19T20:03:40.122Z,35.93
2019-05-19T20:06:08.306Z,42.93
2019-05-19T20:08:38.445Z,31.97
2019-05-19T20:11:07.631Z,38.20
2019-05-19T20:13:36.833Z,37.90
2019-05-19T20:16:06.067Z,37.60
2019-05-19T20:18:35.276Z,36.37
2019-05-19T20:21:04.508Z,33.27
2019-05-19T20:23:34.044Z,32.57
2019-05-19T20:26:03.268Z,35.63
2019-05-19T20:28:32.487Z,34.57
2019-05-19T20:31:01.697Z,35.57
2019-05-19T20:33:30.886Z,35.70
2019-05-19T20:36:01.021Z,35.97
2019-05-19T20:38:30.234Z,34.43
2019-05-19T20:40:59.439Z,42.23
2019-05-19T20:43:28.617Z,36.60
2019-05-19T20:45:58.170Z,43.37
2019-05-19T20:48:27.352Z,40.50
2019-05-19T20:50:56.555Z,42.80
2019-05-19T20:53:25.747Z,44.00
2019-05-19T20:55:54.964Z,44.93
2019-05-19T20:58:24.160Z,51.87
2019-05-19T21:00:53.357Z,50.77
2019-05-19T21:03:22.582Z,49.63
2019-05-19T21:05:51.781Z,50.30
2019-05-19T21:08:21.009Z,49.20
2019-05-19T21:10:50.185Z,53.03
2019-05-19T21:13:19.299Z,51.10
2019-05-19T21:15:48.510Z,52.93
2019-05-19T21:18:17.696Z,51.83
2019-05-19T21:20:48.978Z,51.03
2019-05-19T21:23:17.720Z,54.90
2019-05-19T21:25:46.917Z,61.90
2019-05-19T21:28:16.110Z,54.27
2019-05-19T21:30:45.298Z,56.30
2019-05-19T21:33:14.489Z,61.73
2019-05-19T21:35:43.684Z,58.93
2019-05-19T21:38:12.860Z,68.87
2019-05-19T21:40:42.125Z,62.50
2019-05-19T21:43:11.316Z,59.53
2019-05-19T21:45:40.510Z,55.17
2019-05-19T21:48:09.717Z,61.43
2019-05-19T21:50:38.904Z,56.83
2019-05-19T21:53:08.094Z,59.63
2019-05-19T21:55:37.293Z,61.23
2019-05-19T21:58:06.571Z,61.87
2019-05-19T22:00:36.352Z,55.27
2019-05-19T22:03:05.611Z,52.00
2019-05-19T22:05:34.806Z,53.63
2019-05-19T22:08:08.849Z,54.87
2019-05-19T22:10:38.071Z,48.67
2019-05-19T22:13:07.244Z,51.50
2019-05-19T22:15:36.437Z,46.23
2019-05-19T22:18:05.686Z,43.37
2019-05-19T22:20:34.960Z,47.33
2019-05-19T22:23:04.136Z,46.17
2019-05-19T22:25:33.366Z,47.10
2019-05-19T22:28:02.564Z,44.40
2019-05-19T22:30:31.746Z,40.67
2019-05-19T22:33:00.966Z,42.07
2019-05-19T22:35:30.175Z,46.63
2019-05-19T22:37:59.371Z,47.50
2019-05-19T22:40:28.658Z,43.70
2019-05-19T22:42:57.858Z,48.33
2019-05-19T22:45:27.043Z,47.33
2019-05-19T22:47:56.261Z,44.47
2019-05-19T22:50:25.451Z,45.03
2019-05-19T22:52:54.748Z,46.50
2019-05-19T22:55:23.948Z,47.50
2019-05-19T22:57:53.137Z,44.73
2019-05-19T23:00:22.690Z,42.33
2019-05-19T23:02:51.880Z,44.30
2019-05-19T23:05:21.140Z,38.27
2019-05-19T23:07:50.396Z,36.23
2019-05-19T23:10:20.226Z,35.97
2019-05-19T23:12:49.443Z,39.13
2019-05-19T23:15:19.387Z,37.13
2019-05-19T23:17:48.587Z,33.90
2019-05-19T23:20:17.776Z,31.00
2019-05-19T23:22:46.960Z,32.03
2019-05-19T23:25:16.243Z,31.30
2019-05-19T23:27:45.434Z,33.83
2019-05-19T23:30:15.058Z,30.97
2019-05-19T23:32:44.246Z,26.13
2019-05-19T23:35:13.578Z,27.87
2019-05-19T23:37:42.803Z,28.00
2019-05-19T23:40:12.327Z,27.90
2019-05-19T23:42:41.525Z,29.10
2019-05-19T23:45:10.907Z,25.23
2019-05-19T23:47:40.265Z,29.40
2019-05-19T23:50:10.086Z,23.97
2019-05-19T23:52:39.282Z,29.10
2019-05-19T23:55:08.808Z,26.23
2019-05-19T23:57:38.000Z,24.93
